Time;durP1;ratioP1;P1;durP2;ratioP2;P2;SDS_P1;SDS_P2;PMS_P1;PMS_P2;Temp;Humidity;BMP_temperature;BMP_pressure;BME280_temperature;BME280_humidity;BME280_pressure;Samples;Min_cycle;Max_cycle;Signal;HPM_P1;HPM_P2
2024/03/27 00:01:53;;;;;;;6.13;3.97;;;;;;;;;;4924339;28;20580;-63
2024/03/27 00:04:39;;;;;;;8.38;4.00;;;;;;;;;;4936600;28;20063;-63
2024/03/27 00:07:32;;;;;;;5.00;3.53;;;;;;;;;;4941445;28;20070;-64
2024/03/27 00:10:18;;;;;;;9.27;3.78;;;;;;;;;;4929286;28;20059;-52
2024/03/27 00:13:11;;;;;;;6.57;3.78;;;;;;;;;;4923838;28;20059;-47
2024/03/27 00:16:04;;;;;;;8.30;3.88;;;;;;;;;;4926239;28;20071;-49
2024/03/27 00:18:44;;;;;;;5.90;3.58;;;;;;;;;;4960081;28;20042;-52
2024/03/27 00:21:10;;;;;;;7.43;3.60;;;;;;;;;;4962688;28;20054;-60
2024/03/27 00:23:37;;;;;;;8.02;4.03;;;;;;;;;;4980878;28;20065;-48
2024/03/27 00:26:10;;;;;;;6.72;3.70;;;;;;;;;;4981803;28;20417;-48
2024/03/27 00:28:37;;;;;;;6.32;3.88;;;;;;;;;;4963426;28;20066;-49
2024/03/27 00:31:10;;;;;;;6.88;4.10;;;;;;;;;;4964444;28;20356;-50
2024/03/27 00:33:36;;;;;;;7.03;3.67;;;;;;;;;;4961338;28;20055;-51
2024/03/27 00:36:02;;;;;;;9.65;4.22;;;;;;;;;;4952057;28;20508;-50
2024/03/27 00:38:36;;;;;;;7.78;4.00;;;;;;;;;;4977722;28;20105;-59
2024/03/27 00:41:03;;;;;;;5.32;3.72;;;;;;;;;;4964115;28;20054;-59
2024/03/27 00:43:30;;;;;;;7.78;4.40;;;;;;;;;;4965095;28;20061;-60
2024/03/27 00:46:03;;;;;;;11.30;4.72;;;;;;;;;;4962849;28;20062;-60
2024/03/27 00:48:30;;;;;;;9.88;4.55;;;;;;;;;;4966702;28;21310;-59
2024/03/27 00:50:57;;;;;;;8.50;4.18;;;;;;;;;;4959789;28;20059;-64
2024/03/27 00:53:32;;;;;;;7.60;4.72;;;;;;;;;;4979935;28;20054;-60
2024/03/27 00:55:59;;;;;;;5.00;3.50;;;;;;;;;;4958096;28;20055;-60
2024/03/27 00:58:26;;;;;;;6.82;4.65;;;;;;;;;;4956612;28;20073;-60
2024/03/27 01:00:59;;;;;;;7.70;4.30;;;;;;;;;;4961849;28;20066;-60
2024/03/27 01:03:45;;;;;;;7.65;4.22;;;;;;;;;;4961834;28;20309;-60
2024/03/27 01:06:38;;;;;;;7.68;4.35;;;;;;;;;;4965160;28;20058;-64
2024/03/27 01:09:24;;;;;;;9.48;4.03;;;;;;;;;;4963998;28;20050;-63
2024/03/27 01:12:17;;;;;;;9.10;4.43;;;;;;;;;;4963780;28;20070;-65
2024/03/27 01:15:10;;;;;;;8.93;5.15;;;;;;;;;;4965584;28;20061;-64
2024/03/27 01:18:09;;;;;;;7.72;4.60;;;;;;;;;;4960303;28;23791;-51
2024/03/27 01:21:02;;;;;;;8.55;4.68;;;;;;;;;;4959179;28;20059;-47
2024/03/27 01:23:55;;;;;;;9.15;5.20;;;;;;;;;;4960760;28;20060;-50
2024/03/27 01:26:41;;;;;;;12.73;5.10;;;;;;;;;;4977909;28;20504;-51
2024/03/27 01:29:34;;;;;;;8.05;5.22;;;;;;;;;;4962163;28;20056;-50
2024/03/27 01:32:27;;;;;;;9.25;5.10;;;;;;;;;;4967308;28;20070;-45
2024/03/27 01:35:13;;;;;;;10.88;6.07;;;;;;;;;;4972907;28;20062;-61
2024/03/27 01:38:06;;;;;;;12.02;5.82;;;;;;;;;;4975470;28;20113;-61
2024/03/27 01:40:52;;;;;;;11.57;5.57;;;;;;;;;;4958352;28;20443;-60
2024/03/27 01:43:45;;;;;;;8.27;5.65;;;;;;;;;;4963395;28;20057;-60
2024/03/27 01:46:31;;;;;;;11.57;6.35;;;;;;;;;;4958572;28;20177;-62
2024/03/27 01:49:24;;;;;;;10.57;5.70;;;;;;;;;;4962145;28;20066;-65
2024/03/27 01:52:11;;;;;;;9.52;5.55;;;;;;;;;;4965395;28;20074;-65
2024/03/27 01:55:04;;;;;;;14.27;6.90;;;;;;;;;;4961378;28;20070;-64
2024/03/27 01:57:50;;;;;;;11.20;6.43;;;;;;;;;;4957759;28;20087;-64
2024/03/27 02:00:44;;;;;;;11.15;6.20;;;;;;;;;;4958642;28;20051;-65
2024/03/27 02:03:30;;;;;;;10.10;6.72;;;;;;;;;;4961285;28;20112;-61
2024/03/27 02:06:23;;;;;;;12.07;6.18;;;;;;;;;;4957610;28;20062;-60
2024/03/27 02:09:09;;;;;;;15.55;6.22;;;;;;;;;;4962160;28;20058;-59
2024/03/27 02:12:02;;;;;;;11.48;7.45;;;;;;;;;;4958795;28;20059;-60
2024/03/27 02:14:48;;;;;;;16.13;7.60;;;;;;;;;;4962018;28;20078;-52
2024/03/27 02:17:48;;;;;;;12.63;7.18;;;;;;;;;;4963070;28;20054;-50
2024/03/27 02:20:42;;;;;;;17.48;8.02;;;;;;;;;;4963296;28;20070;-49
2024/03/27 02:23:29;;;;;;;13.93;7.20;;;;;;;;;;4958808;28;20062;-51
2024/03/27 02:26:25;;;;;;;14.05;7.65;;;;;;;;;;4955291;28;20047;-47
2024/03/27 02:29:18;;;;;;;13.60;7.45;;;;;;;;;;4957169;28;20077;-48
2024/03/27 02:32:04;;;;;;;13.93;8.00;;;;;;;;;;4956596;28;20066;-51
2024/03/27 02:34:57;;;;;;;19.08;9.13;;;;;;;;;;4955032;28;20292;-47
2024/03/27 02:37:43;;;;;;;14.77;8.48;;;;;;;;;;4962069;28;20424;-50
2024/03/27 02:40:36;;;;;;;14.88;8.50;;;;;;;;;;4960056;28;20524;-48
2024/03/27 02:43:22;;;;;;;16.52;8.98;;;;;;;;;;4975256;28;20065;-59
2024/03/27 02:46:15;;;;;;;12.32;7.07;;;;;;;;;;4963912;28;20070;-63
2024/03/27 02:49:01;;;;;;;16.77;8.20;;;;;;;;;;4959406;28;20538;-63
2024/03/27 02:51:54;;;;;;;16.58;8.40;;;;;;;;;;4959190;28;20062;-64
2024/03/27 02:54:40;;;;;;;14.30;8.02;;;;;;;;;;4960913;28;20058;-63
2024/03/27 02:57:33;;;;;;;16.23;9.02;;;;;;;;;;4960425;28;20062;-63
2024/03/27 03:00:19;;;;;;;18.50;9.60;;;;;;;;;;4960323;28;20069;-49
2024/03/27 03:03:12;;;;;;;15.82;7.93;;;;;;;;;;4962366;28;20058;-51
2024/03/27 03:06:05;;;;;;;17.42;8.52;;;;;;;;;;4958395;28;20054;-50
2024/03/27 03:08:58;;;;;;;15.77;7.38;;;;;;;;;;4961138;28;20659;-48
2024/03/27 03:11:44;;;;;;;16.38;8.65;;;;;;;;;;4961852;28;20058;-48
2024/03/27 03:14:37;;;;;;;15.90;9.00;;;;;;;;;;4960417;28;20061;-53
2024/03/27 03:17:29;;;;;;;17.73;8.07;;;;;;;;;;4956665;28;20061;-51
2024/03/27 03:20:22;;;;;;;15.98;6.88;;;;;;;;;;4967204;28;20050;-47
2024/03/27 03:23:08;;;;;;;20.00;10.43;;;;;;;;;;4958648;28;20397;-49
2024/03/27 03:26:01;;;;;;;17.08;9.55;;;;;;;;;;4965874;28;20066;-52
2024/03/27 03:28:47;;;;;;;16.95;9.43;;;;;;;;;;4965249;28;20065;-60
2024/03/27 03:31:40;;;;;;;18.27;9.07;;;;;;;;;;4965837;28;20050;-60
2024/03/27 03:34:26;;;;;;;17.27;9.48;;;;;;;;;;4978504;28;20132;-60
2024/03/27 03:37:19;;;;;;;16.95;9.55;;;;;;;;;;4973990;28;20070;-60
2024/03/27 03:40:07;;;;;;;17.35;8.38;;;;;;;;;;4962773;28;20567;-49
2024/03/27 03:42:58;;;;;;;20.10;10.18;;;;;;;;;;4977676;28;20113;-66
2024/03/27 03:45:44;;;;;;;22.05;9.35;;;;;;;;;;4964109;28;20058;-65
2024/03/27 03:48:37;;;;;;;18.85;11.02;;;;;;;;;;4963738;28;20058;-65
2024/03/27 03:51:23;;;;;;;23.10;11.82;;;;;;;;;;4960790;28;20058;-65
2024/03/27 03:54:16;;;;;;;28.40;10.93;;;;;;;;;;4977304;28;20057;-66
2024/03/27 03:57:02;;;;;;;21.67;12.23;;;;;;;;;;4963453;28;20059;-60
2024/03/27 03:59:55;;;;;;;20.77;10.65;;;;;;;;;;4968000;28;20582;-60
2024/03/27 04:02:41;;;;;;;23.80;11.18;;;;;;;;;;4961090;28;20069;-60
2024/03/27 04:05:34;;;;;;;22.23;10.73;;;;;;;;;;4979015;28;20165;-60
2024/03/27 04:08:21;;;;;;;22.98;12.63;;;;;;;;;;4964966;28;20440;-52
2024/03/27 04:11:14;;;;;;;19.40;11.20;;;;;;;;;;4974978;28;20578;-65
2024/03/27 04:14:00;;;;;;;20.77;10.57;;;;;;;;;;4960820;28;20058;-66
2024/03/27 04:17:00;;;;;;;20.23;10.73;;;;;;;;;;4958318;28;20054;-65
2024/03/27 04:19:53;;;;;;;23.02;11.40;;;;;;;;;;4962767;28;20054;-65
2024/03/27 04:22:46;;;;;;;22.63;11.48;;;;;;;;;;4978427;28;20513;-65
2024/03/27 04:25:32;;;;;;;21.05;11.65;;;;;;;;;;4960023;28;20050;-48
2024/03/27 04:28:25;;;;;;;21.63;12.50;;;;;;;;;;4966018;28;20070;-51
2024/03/27 04:31:11;;;;;;;23.10;12.40;;;;;;;;;;4959635;28;20062;-49
2024/03/27 04:34:04;;;;;;;23.48;12.52;;;;;;;;;;4959668;28;20089;-52
2024/03/27 04:36:50;;;;;;;25.00;12.32;;;;;;;;;;4961382;28;20058;-63
2024/03/27 04:39:43;;;;;;;17.42;9.45;;;;;;;;;;4961210;28;20117;-60
2024/03/27 04:42:29;;;;;;;22.15;11.98;;;;;;;;;;4957601;28;20092;-59
2024/03/27 04:45:22;;;;;;;23.08;12.57;;;;;;;;;;4962226;28;20058;-60
2024/03/27 04:48:08;;;;;;;26.58;13.45;;;;;;;;;;4962827;28;20106;-59
2024/03/27 04:51:01;;;;;;;23.35;12.30;;;;;;;;;;4964552;28;20058;-59
2024/03/27 04:53:54;;;;;;;23.65;12.13;;;;;;;;;;4968007;28;20530;-64
2024/03/27 04:56:47;;;;;;;25.45;12.55;;;;;;;;;;4958705;28;20050;-64
2024/03/27 04:59:33;;;;;;;22.85;12.90;;;;;;;;;;4973260;28;20054;-64
2024/03/27 05:02:26;;;;;;;23.85;13.07;;;;;;;;;;4957001;28;21642;-64
2024/03/27 05:05:12;;;;;;;22.40;11.32;;;;;;;;;;4966745;28;20057;-63
2024/03/27 05:08:05;;;;;;;25.35;11.70;;;;;;;;;;4976532;28;20066;-63
2024/03/27 05:10:58;;;;;;;26.45;12.85;;;;;;;;;;4976120;28;20053;-63
2024/03/27 05:13:44;;;;;;;23.67;11.20;;;;;;;;;;4965521;28;20053;-63
2024/03/27 05:16:44;;;;;;;20.35;10.57;;;;;;;;;;4966552;28;20519;-63
2024/03/27 05:19:37;;;;;;;18.60;10.02;;;;;;;;;;4976494;28;20496;-63
2024/03/27 05:22:31;;;;;;;21.98;8.98;;;;;;;;;;4965041;28;20582;-62
2024/03/27 05:25:15;;;;;;;19.23;9.35;;;;;;;;;;4972429;28;20062;-63
2024/03/27 05:28:08;;;;;;;19.13;9.25;;;;;;;;;;4960332;28;20070;-63
2024/03/27 05:31:01;;;;;;;22.05;11.70;;;;;;;;;;4963862;28;20050;-63
2024/03/27 05:33:54;;;;;;;23.08;11.90;;;;;;;;;;4958617;28;20831;-63
2024/03/27 05:36:40;;;;;;;24.88;12.95;;;;;;;;;;4953114;28;20505;-61
2024/03/27 05:39:33;;;;;;;21.55;12.35;;;;;;;;;;4958600;28;20583;-61
2024/03/27 05:42:19;;;;;;;21.92;11.90;;;;;;;;;;4972538;28;20062;-60
2024/03/27 05:45:12;;;;;;;23.00;12.70;;;;;;;;;;4957563;28;20054;-60
2024/03/27 05:48:05;;;;;;;23.45;13.43;;;;;;;;;;4963005;28;20054;-60
2024/03/27 05:50:54;;;;;;;20.45;12.57;;;;;;;;;;4950289;28;20236;-60
2024/03/27 05:53:47;;;;;;;25.77;12.68;;;;;;;;;;4949551;28;20500;-61
2024/03/27 05:56:33;;;;;;;25.38;13.68;;;;;;;;;;4959511;28;20061;-60
2024/03/27 05:59:26;;;;;;;25.02;13.50;;;;;;;;;;4927614;28;20058;-61
2024/03/27 06:02:12;;;;;;;24.98;13.77;;;;;;;;;;4954042;28;20058;-59
2024/03/27 06:05:05;;;;;;;28.63;14.10;;;;;;;;;;4979233;28;20070;-60
2024/03/27 06:07:51;;;;;;;27.15;13.80;;;;;;;;;;4964132;28;20054;-60
2024/03/27 06:10:47;;;;;;;28.83;15.20;;;;;;;;;;4962550;28;20645;-61
2024/03/27 06:13:37;;;;;;;27.08;14.95;;;;;;;;;;4959293;28;20535;-60
2024/03/27 06:16:37;;;;;;;27.70;14.93;;;;;;;;;;4957763;28;20046;-60
2024/03/27 06:19:30;;;;;;;28.38;14.45;;;;;;;;;;4961715;28;20065;-60
2024/03/27 06:22:22;;;;;;;26.88;15.45;;;;;;;;;;4964213;28;20527;-49
2024/03/27 06:25:09;;;;;;;25.77;15.45;;;;;;;;;;4959318;28;20054;-60
2024/03/27 06:28:01;;;;;;;27.13;14.48;;;;;;;;;;4962355;28;20063;-61
2024/03/27 06:30:47;;;;;;;26.25;13.15;;;;;;;;;;4964000;28;20462;-60
2024/03/27 06:33:40;;;;;;;25.90;13.32;;;;;;;;;;4964513;28;20050;-61
2024/03/27 06:36:26;;;;;;;27.42;14.30;;;;;;;;;;4964568;28;20120;-60
2024/03/27 06:39:19;;;;;;;23.25;14.07;;;;;;;;;;4967916;28;20124;-59
2024/03/27 06:42:05;;;;;;;23.95;14.82;;;;;;;;;;4960600;28;20066;-59
2024/03/27 06:44:58;;;;;;;25.13;15.10;;;;;;;;;;4963639;28;20080;-59
2024/03/27 06:47:44;;;;;;;30.30;15.77;;;;;;;;;;4958825;28;20066;-64
2024/03/27 06:50:37;;;;;;;21.65;12.25;;;;;;;;;;4962857;28;20059;-61
2024/03/27 06:53:30;;;;;;;24.23;14.80;;;;;;;;;;4963538;28;20058;-64
2024/03/27 06:56:23;;;;;;;25.70;15.00;;;;;;;;;;4967313;28;20050;-64
2024/03/27 06:59:09;;;;;;;20.05;9.63;;;;;;;;;;4962776;28;20057;-64
2024/03/27 07:02:02;;;;;;;21.20;12.25;;;;;;;;;;4964826;28;20062;-64
2024/03/27 07:04:48;;;;;;;28.95;14.88;;;;;;;;;;4963497;28;20062;-64
2024/03/27 07:07:42;;;;;;;23.70;14.65;;;;;;;;;;4965009;28;20062;-60
2024/03/27 07:10:27;;;;;;;23.48;13.43;;;;;;;;;;4965665;28;20124;-60
2024/03/27 07:13:20;;;;;;;23.35;14.23;;;;;;;;;;4963700;28;20050;-60
2024/03/27 07:16:06;;;;;;;25.95;13.65;;;;;;;;;;4963410;28;20168;-65
2024/03/27 07:19:06;;;;;;;23.77;12.93;;;;;;;;;;4965447;28;20054;-60
2024/03/27 07:21:52;;;;;;;29.30;15.10;;;;;;;;;;4968951;28;20054;-60
2024/03/27 07:24:49;;;;;;;22.15;14.63;;;;;;;;;;4964154;28;20063;-60
2024/03/27 07:27:42;;;;;;;24.02;14.57;;;;;;;;;;4971158;28;20050;-60
2024/03/27 07:30:35;;;;;;;22.15;14.10;;;;;;;;;;4961748;28;20066;-60
2024/03/27 07:33:28;;;;;;;23.05;14.80;;;;;;;;;;4970116;28;20058;-60
2024/03/27 07:36:21;;;;;;;26.25;14.63;;;;;;;;;;4969131;28;20516;-60
2024/03/27 07:39:07;;;;;;;25.23;15.15;;;;;;;;;;4971357;28;20121;-60
2024/03/27 07:42:00;;;;;;;24.23;13.95;;;;;;;;;;4967580;28;20066;-60
2024/03/27 07:44:46;;;;;;;22.98;14.80;;;;;;;;;;4961401;28;20051;-61
2024/03/27 07:47:39;;;;;;;26.63;15.82;;;;;;;;;;4963996;28;20065;-60
2024/03/27 07:50:25;;;;;;;23.92;12.25;;;;;;;;;;4970032;28;20073;-49
2024/03/27 07:53:18;;;;;;;22.13;13.85;;;;;;;;;;4967373;28;20065;-51
2024/03/27 07:56:04;;;;;;;21.70;12.02;;;;;;;;;;4967850;28;20066;-49
2024/03/27 07:58:57;;;;;;;19.73;12.48;;;;;;;;;;4962307;28;20062;-50
2024/03/27 08:01:43;;;;;;;20.80;13.40;;;;;;;;;;4966245;28;20062;-47
2024/03/27 08:04:36;;;;;;;24.15;13.55;;;;;;;;;;4966459;28;20053;-60
2024/03/27 08:07:22;;;;;;;23.08;14.00;;;;;;;;;;4964469;28;20132;-59
2024/03/27 08:10:15;;;;;;;23.42;13.88;;;;;;;;;;4967041;28;20227;-59
2024/03/27 08:13:02;;;;;;;22.25;11.27;;;;;;;;;;4966049;28;20061;-51
2024/03/27 08:15:54;;;;;;;23.13;13.82;;;;;;;;;;4965552;28;20073;-52
2024/03/27 08:18:53;;;;;;;21.67;13.80;;;;;;;;;;4962735;28;20059;-51
2024/03/27 08:21:46;;;;;;;21.92;12.90;;;;;;;;;;4971296;28;20109;-54
2024/03/27 08:24:32;;;;;;;23.77;14.73;;;;;;;;;;4966919;28;20432;-52
2024/03/27 08:27:25;;;;;;;23.02;14.32;;;;;;;;;;4962508;28;20054;-55
2024/03/27 08:30:11;;;;;;;20.95;13.82;;;;;;;;;;4965635;28;20054;-53
2024/03/27 08:33:04;;;;;;;23.15;13.95;;;;;;;;;;4984273;28;20069;-64
2024/03/27 08:35:57;;;;;;;25.65;14.70;;;;;;;;;;4975052;28;20055;-64
2024/03/27 08:38:50;;;;;;;26.05;14.77;;;;;;;;;;4980607;28;20410;-64
2024/03/27 08:41:36;;;;;;;23.05;13.93;;;;;;;;;;4964634;28;20061;-64
2024/03/27 08:44:29;;;;;;;19.63;13.00;;;;;;;;;;4969046;28;20054;-59
2024/03/27 08:47:15;;;;;;;19.05;13.10;;;;;;;;;;4964696;28;20113;-60
2024/03/27 08:50:12;;;;;;;24.15;13.82;;;;;;;;;;4966819;28;20053;-60
2024/03/27 08:52:54;;;;;;;19.30;12.80;;;;;;;;;;4963348;28;20058;-59
2024/03/27 08:55:48;;;;;;;23.55;13.40;;;;;;;;;;4962282;28;20051;-60
2024/03/27 08:58:40;;;;;;;25.05;13.18;;;;;;;;;;4975953;28;20480;-60
2024/03/27 09:01:33;;;;;;;16.90;10.52;;;;;;;;;;4962128;28;20062;-65
2024/03/27 09:04:26;;;;;;;20.42;11.73;;;;;;;;;;4962933;28;20054;-64
2024/03/27 09:07:19;;;;;;;19.02;12.38;;;;;;;;;;4963715;28;20500;-64
2024/03/27 09:10:05;;;;;;;19.70;12.07;;;;;;;;;;4978206;28;20058;-55
2024/03/27 09:12:58;;;;;;;19.45;10.93;;;;;;;;;;4959730;28;20066;-51
2024/03/27 09:15:55;;;;;;;37.15;13.18;;;;;;;;;;4961091;28;20112;-62
2024/03/27 09:18:54;;;;;;;20.38;11.57;;;;;;;;;;4968374;28;20058;-61
2024/03/27 09:21:40;;;;;;;19.25;12.60;;;;;;;;;;4968335;28;20054;-61
2024/03/27 09:24:33;;;;;;;22.70;12.90;;;;;;;;;;4977200;28;22154;-61
2024/03/27 09:27:19;;;;;;;18.85;11.60;;;;;;;;;;4963865;28;20077;-61
2024/03/27 09:30:12;;;;;;;22.23;12.15;;;;;;;;;;4966493;28;20070;-63
2024/03/27 09:32:58;;;;;;;21.27;12.85;;;;;;;;;;4963743;28;20555;-63
2024/03/27 09:35:51;;;;;;;18.42;11.82;;;;;;;;;;4977493;28;20054;-64
2024/03/27 09:38:37;;;;;;;16.70;10.45;;;;;;;;;;4963400;28;20055;-61
2024/03/27 09:41:30;;;;;;;18.80;11.50;;;;;;;;;;4967937;28;20547;-61
2024/03/27 09:44:17;;;;;;;18.77;12.15;;;;;;;;;;4963785;28;20062;-66
2024/03/27 09:47:12;;;;;;;16.25;11.38;;;;;;;;;;4958923;28;20062;-66
2024/03/27 09:49:58;;;;;;;15.77;11.35;;;;;;;;;;4965741;28;20073;-66
2024/03/27 09:52:51;;;;;;;18.67;11.00;;;;;;;;;;4967889;28;20050;-66
2024/03/27 09:55:44;;;;;;;17.05;11.27;;;;;;;;;;4963877;28;20364;-65
2024/03/27 09:58:30;;;;;;;16.50;10.88;;;;;;;;;;4959723;28;20632;-64
2024/03/27 10:01:23;;;;;;;19.73;11.32;;;;;;;;;;4963424;28;20427;-64
2024/03/27 10:04:16;;;;;;;16.25;10.98;;;;;;;;;;4968021;28;20046;-64
2024/03/27 10:07:09;;;;;;;17.52;10.98;;;;;;;;;;4966362;28;20439;-61
2024/03/27 10:09:55;;;;;;;23.98;11.55;;;;;;;;;;4963247;28;20108;-60
2024/03/27 10:12:48;;;;;;;17.48;11.60;;;;;;;;;;4965306;28;20058;-61
2024/03/27 10:15:35;;;;;;;15.65;10.73;;;;;;;;;;4958918;28;20177;-61
2024/03/27 10:18:34;;;;;;;18.45;11.35;;;;;;;;;;4964341;28;20066;-61
2024/03/27 10:21:28;;;;;;;23.20;11.43;;;;;;;;;;4958428;28;20062;-61
2024/03/27 10:24:20;;;;;;;16.10;10.05;;;;;;;;;;4964429;28;20058;-61
2024/03/27 10:27:06;;;;;;;17.92;10.52;;;;;;;;;;4959552;28;20477;-64
2024/03/27 10:29:59;;;;;;;16.75;10.52;;;;;;;;;;4970498;28;20105;-65
2024/03/27 10:32:52;;;;;;;14.20;9.68;;;;;;;;;;4961894;28;20058;-64
2024/03/27 10:35:39;;;;;;;14.73;9.25;;;;;;;;;;4960900;28;20050;-60
2024/03/27 10:38:32;;;;;;;17.33;9.35;;;;;;;;;;4968822;28;20062;-64
2024/03/27 10:41:25;;;;;;;14.82;10.02;;;;;;;;;;4966084;28;20063;-60
2024/03/27 10:44:12;;;;;;;15.20;9.65;;;;;;;;;;4959937;28;20059;-60
2024/03/27 10:47:11;;;;;;;14.35;9.95;;;;;;;;;;4963905;28;20055;-61
2024/03/27 10:49:54;;;;;;;12.70;9.73;;;;;;;;;;4957038;28;20141;-61
2024/03/27 10:52:47;;;;;;;14.57;9.13;;;;;;;;;;4966243;28;20448;-60
2024/03/27 10:55:36;;;;;;;15.13;8.88;;;;;;;;;;4962528;28;20050;-52
2024/03/27 10:58:27;;;;;;;13.75;9.38;;;;;;;;;;4961833;28;20054;-48
2024/03/27 11:01:13;;;;;;;17.23;10.07;;;;;;;;;;4959468;28;20500;-51
2024/03/27 11:04:09;;;;;;;14.75;9.65;;;;;;;;;;4962912;28;20065;-63
2024/03/27 11:06:55;;;;;;;12.43;8.38;;;;;;;;;;4959549;28;20058;-47
2024/03/27 11:09:57;;;;;;;15.30;8.98;;;;;;;;;;4975976;28;20062;-64
2024/03/27 11:12:43;;;;;;;13.80;8.95;;;;;;;;;;4962945;28;20050;-63
2024/03/27 11:15:38;;;;;;;13.73;9.65;;;;;;;;;;4959981;28;20054;-64
2024/03/27 11:18:35;;;;;;;14.15;9.38;;;;;;;;;;4961008;28;20055;-64
2024/03/27 11:21:28;;;;;;;12.35;9.07;;;;;;;;;;4962972;28;20066;-64
2024/03/27 11:24:14;;;;;;;11.77;8.38;;;;;;;;;;4976323;28;20070;-54
2024/03/27 11:27:07;;;;;;;13.80;8.75;;;;;;;;;;4960847;28;20059;-50
2024/03/27 11:30:00;;;;;;;17.35;9.50;;;;;;;;;;4965271;28;20069;-53
2024/03/27 11:32:47;;;;;;;14.75;10.05;;;;;;;;;;4961014;28;20058;-63
2024/03/27 11:35:41;;;;;;;13.40;9.23;;;;;;;;;;4962644;28;20289;-61
2024/03/27 11:38:27;;;;;;;14.07;9.70;;;;;;;;;;4960469;28;20549;-62
2024/03/27 11:41:20;;;;;;;13.05;9.07;;;;;;;;;;4976791;28;20062;-62
2024/03/27 11:44:13;;;;;;;13.13;8.82;;;;;;;;;;4965894;28;20059;-61
2024/03/27 11:47:06;;;;;;;14.25;8.68;;;;;;;;;;4965718;28;20085;-61
2024/03/27 11:49:52;;;;;;;15.77;9.48;;;;;;;;;;4964124;28;20055;-61
2024/03/27 11:52:45;;;;;;;10.63;7.93;;;;;;;;;;4965165;28;20057;-45
2024/03/27 11:55:31;;;;;;;11.73;8.60;;;;;;;;;;4968812;28;20070;-48
2024/03/27 11:58:24;;;;;;;11.52;7.63;;;;;;;;;;4963428;28;20050;-52
2024/03/27 12:01:10;;;;;;;12.55;8.25;;;;;;;;;;4963486;28;20611;-54
2024/03/27 12:04:03;;;;;;;12.60;8.40;;;;;;;;;;4963914;28;20062;-51
2024/03/27 12:06:50;;;;;;;12.02;8.30;;;;;;;;;;4966181;28;20527;-48
2024/03/27 12:09:43;;;;;;;11.13;7.43;;;;;;;;;;4960379;28;20468;-49
2024/03/27 12:12:29;;;;;;;11.65;7.53;;;;;;;;;;4966952;28;20112;-49
2024/03/27 12:15:22;;;;;;;10.63;6.95;;;;;;;;;;4966304;28;20066;-52
2024/03/27 12:18:27;;;;;;;12.63;8.05;;;;;;;;;;4965536;28;20511;-51
2024/03/27 12:21:19;;;;;;;9.57;6.93;;;;;;;;;;4981111;28;20050;-64
2024/03/27 12:24:12;;;;;;;10.45;6.85;;;;;;;;;;4967453;28;20062;-63
2024/03/27 12:27:05;;;;;;;12.23;7.80;;;;;;;;;;4963987;28;20058;-64
2024/03/27 12:29:51;;;;;;;10.38;7.35;;;;;;;;;;4965584;28;20108;-60
2024/03/27 12:32:44;;;;;;;10.75;7.22;;;;;;;;;;4966944;28;20058;-59
2024/03/27 12:35:31;;;;;;;9.18;7.22;;;;;;;;;;4961832;28;20054;-59
2024/03/27 12:38:24;;;;;;;13.52;7.43;;;;;;;;;;4967218;28;20062;-59
2024/03/27 12:41:17;;;;;;;11.48;7.25;;;;;;;;;;4964141;28;20752;-59
2024/03/27 12:44:03;;;;;;;12.57;7.60;;;;;;;;;;4968011;28;20058;-59
2024/03/27 12:46:56;;;;;;;10.32;6.45;;;;;;;;;;4965426;28;20061;-59
2024/03/27 12:49:50;;;;;;;11.77;7.07;;;;;;;;;;4970111;28;20050;-51
2024/03/27 12:52:38;;;;;;;12.30;6.72;;;;;;;;;;4963686;28;20058;-51
2024/03/27 12:55:29;;;;;;;12.50;6.60;;;;;;;;;;4969524;28;20058;-50
2024/03/27 12:58:15;;;;;;;10.68;7.03;;;;;;;;;;4967294;28;20120;-50
2024/03/27 13:01:08;;;;;;;14.00;6.97;;;;;;;;;;4980487;28;20058;-59
2024/03/27 13:04:01;;;;;;;9.77;6.20;;;;;;;;;;4963234;28;20063;-58
2024/03/27 13:06:47;;;;;;;12.00;6.80;;;;;;;;;;4965069;28;20061;-60
2024/03/27 13:09:40;;;;;;;10.90;6.35;;;;;;;;;;4962696;28;20607;-59
2024/03/27 13:12:26;;;;;;;10.63;6.45;;;;;;;;;;4964175;28;20639;-59
2024/03/27 13:15:19;;;;;;;9.45;6.15;;;;;;;;;;4963300;28;20440;-58
2024/03/27 13:18:12;;;;;;;14.25;7.03;;;;;;;;;;4965717;28;20054;-63
2024/03/27 13:21:12;;;;;;;8.02;5.90;;;;;;;;;;4969583;28;20054;-64
2024/03/27 13:24:04;;;;;;;;;;;;;;;;;;4966312;28;20058;-63
2024/03/27 13:26:50;;;;;;;10.70;6.10;;;;;;;;;;4964051;28;19929;-52
2024/03/27 13:29:43;;;;;;;9.88;5.97;;;;;;;;;;4963601;28;20463;-53
2024/03/27 13:32:30;;;;;;;10.90;6.07;;;;;;;;;;4963202;28;20069;-53
2024/03/27 13:35:23;;;;;;;12.52;6.00;;;;;;;;;;4962701;28;20085;-53
2024/03/27 13:38:08;;;;;;;8.63;6.03;;;;;;;;;;4961227;28;20059;-50
2024/03/27 13:41:02;;;;;;;11.35;5.88;;;;;;;;;;4962408;28;20062;-47
2024/03/27 13:43:47;;;;;;;9.38;5.60;;;;;;;;;;4958408;28;20069;-49
2024/03/27 13:46:40;;;;;;;7.95;5.50;;;;;;;;;;4979628;28;20496;-59
2024/03/27 13:49:26;;;;;;;10.68;5.35;;;;;;;;;;4966842;28;20061;-59
2024/03/27 13:52:19;;;;;;;8.45;5.65;;;;;;;;;;4961643;28;20059;-59
2024/03/27 13:55:05;;;;;;;11.27;4.82;;;;;;;;;;4964616;28;20058;-61
2024/03/27 13:57:58;;;;;;;7.65;5.10;;;;;;;;;;4961744;28;20061;-52
2024/03/27 14:00:44;;;;;;;6.13;4.28;;;;;;;;;;4964112;28;20054;-50
2024/03/27 14:03:37;;;;;;;8.00;4.22;;;;;;;;;;4963140;28;20066;-52
2024/03/27 14:06:30;;;;;;;7.03;4.07;;;;;;;;;;4980072;28;20065;-50
2024/03/27 14:09:23;;;;;;;6.05;3.70;;;;;;;;;;4966634;28;20053;-54
2024/03/27 14:12:09;;;;;;;8.20;4.00;;;;;;;;;;4961509;28;20062;-52
2024/03/27 14:15:02;;;;;;;10.82;4.32;;;;;;;;;;4975768;28;20058;-51
2024/03/27 14:17:55;;;;;;;7.50;4.00;;;;;;;;;;4962628;28;20108;-52
2024/03/27 14:20:55;;;;;;;20.05;4.35;;;;;;;;;;4960688;28;20504;-50
2024/03/27 14:23:47;;;;;;;5.53;3.90;;;;;;;;;;4961078;28;20059;-61
2024/03/27 14:26:33;;;;;;;6.68;3.70;;;;;;;;;;4957574;28;20065;-64
2024/03/27 14:29:26;;;;;;;7.43;3.72;;;;;;;;;;4978817;28;20144;-64
2024/03/27 14:32:12;;;;;;;10.15;3.78;;;;;;;;;;4962147;28;20062;-64
2024/03/27 14:35:05;;;;;;;8.55;3.72;;;;;;;;;;4974085;28;20124;-64
2024/03/27 14:37:51;;;;;;;7.55;3.70;;;;;;;;;;4966551;28;20058;-64
2024/03/27 14:40:44;;;;;;;4.95;3.60;;;;;;;;;;4964880;28;20065;-65
2024/03/27 14:43:30;;;;;;;8.80;3.78;;;;;;;;;;4978188;28;20058;-61
2024/03/27 14:46:23;;;;;;;10.63;3.67;;;;;;;;;;4964009;28;20054;-62
2024/03/27 14:49:09;;;;;;;8.60;3.83;;;;;;;;;;4962450;28;20124;-61
2024/03/27 14:52:02;;;;;;;14.27;4.20;;;;;;;;;;4968962;28;20065;-62
2024/03/27 14:54:50;;;;;;;8.68;3.58;;;;;;;;;;4977802;28;20444;-66
2024/03/27 14:57:41;;;;;;;10.75;3.90;;;;;;;;;;4965458;28;20057;-65
2024/03/27 15:00:27;;;;;;;10.57;3.90;;;;;;;;;;4961294;28;20402;-66
2024/03/27 15:03:20;;;;;;;7.95;3.97;;;;;;;;;;4964062;28;20061;-65
2024/03/27 15:06:06;;;;;;;6.93;2.95;;;;;;;;;;4963131;28;20062;-66
2024/03/27 15:08:59;;;;;;;8.88;3.58;;;;;;;;;;4960053;28;20066;-66
2024/03/27 15:11:52;;;;;;;8.52;4.40;;;;;;;;;;4964458;28;20054;-64
2024/03/27 15:14:45;;;;;;;9.65;5.75;;;;;;;;;;4966247;28;20058;-64
2024/03/27 15:17:31;;;;;;;9.32;5.32;;;;;;;;;;4966088;28;20951;-64
2024/03/27 15:20:31;;;;;;;11.85;6.07;;;;;;;;;;4963718;28;20420;-61
2024/03/27 15:23:24;;;;;;;7.72;5.35;;;;;;;;;;4966399;28;20050;-59
2024/03/27 15:26:17;;;;;;;7.82;5.15;;;;;;;;;;4968042;28;20057;-59
2024/03/27 15:29:11;;;;;;;8.32;5.68;;;;;;;;;;4966204;28;20439;-60
2024/03/27 15:31:56;;;;;;;8.32;4.93;;;;;;;;;;4967346;28;20108;-59
2024/03/27 15:34:49;;;;;;;9.95;5.47;;;;;;;;;;4971229;28;20063;-59
2024/03/27 15:37:35;;;;;;;10.25;6.07;;;;;;;;;;4966809;28;20261;-59
2024/03/27 15:40:29;;;;;;;10.13;6.43;;;;;;;;;;4969725;28;20054;-51
2024/03/27 15:43:15;;;;;;;8.10;5.88;;;;;;;;;;4962799;28;20108;-53
2024/03/27 15:46:07;;;;;;;9.82;5.80;;;;;;;;;;4972618;28;20058;-49
2024/03/27 15:48:53;;;;;;;12.50;6.03;;;;;;;;;;4964003;28;20061;-50
2024/03/27 15:51:46;;;;;;;11.23;6.00;;;;;;;;;;4969178;28;20066;-53
2024/03/27 15:54:32;;;;;;;11.38;6.50;;;;;;;;;;4966321;28;20835;-54
2024/03/27 15:57:25;;;;;;;10.18;6.15;;;;;;;;;;4966012;28;20065;-49
2024/03/27 16:00:12;;;;;;;10.68;7.32;;;;;;;;;;4963162;28;20063;-52
2024/03/27 16:03:04;;;;;;;12.50;7.05;;;;;;;;;;4964310;28;20467;-52
2024/03/27 16:05:57;;;;;;;15.05;7.40;;;;;;;;;;4976472;28;20627;-49
2024/03/27 16:08:43;;;;;;;13.55;7.35;;;;;;;;;;4957727;28;20063;-60
2024/03/27 16:11:36;;;;;;;18.58;9.32;;;;;;;;;;4970172;28;20058;-61
2024/03/27 16:14:23;;;;;;;14.13;8.43;;;;;;;;;;4960908;28;20062;-60
2024/03/27 16:17:15;;;;;;;15.38;8.82;;;;;;;;;;4966584;28;20424;-61
2024/03/27 16:20:08;;;;;;;14.27;8.88;;;;;;;;;;4961184;28;20062;-61
2024/03/27 16:23:01;;;;;;;22.45;10.25;;;;;;;;;;4961570;28;20059;-60
2024/03/27 16:25:54;;;;;;;25.92;10.88;;;;;;;;;;4967567;28;20054;-60
2024/03/27 16:28:40;;;;;;;23.20;10.35;;;;;;;;;;4964330;28;20054;-60
2024/03/27 16:31:33;;;;;;;23.27;12.60;;;;;;;;;;4961481;28;20460;-60
2024/03/27 16:34:19;;;;;;;25.13;12.02;;;;;;;;;;4958734;28;20058;-60
2024/03/27 16:37:12;;;;;;;24.35;12.25;;;;;;;;;;4960388;28;20062;-61
2024/03/27 16:39:58;;;;;;;21.55;12.15;;;;;;;;;;4961201;28;20230;-61